sensor_id;sensor_type;location;lat;lon;timestamp;P1;durP1;ratioP1;P2;durP2;ratioP2
24337;SDS011;12457;50.832;4.346;2022-09-28T00:01:53;12.27;;;4.30;;
24337;SDS011;12457;50.832;4.346;2022-09-28T00:04:18;5.05;;;3.92;;
24337;SDS011;12457;50.832;4.346;2022-09-28T00:06:45;6.43;;;3.58;;
24337;SDS011;12457;50.832;4.346;2022-09-28T00:09:11;7.50;;;3.67;;
24337;SDS011;12457;50.832;4.346;2022-09-28T00:11:38;8.43;;;4.00;;
24337;SDS011;12457;50.832;4.346;2022-09-28T00:14:04;9.80;;;4.18;;
24337;SDS011;12457;50.832;4.346;2022-09-28T00:16:36;6.53;;;3.45;;
24337;SDS011;12457;50.832;4.346;2022-09-28T00:19:09;9.10;;;3.67;;
24337;SDS011;12457;50.832;4.346;2022-09-28T00:21:37;7.18;;;3.15;;
24337;SDS011;12457;50.832;4.346;2022-09-28T00:24:04;5.63;;;3.30;;
24337;SDS011;12457;50.832;4.346;2022-09-28T00:26:37;5.97;;;3.40;;
24337;SDS011;12457;50.832;4.346;2022-09-28T00:29:05;7.72;;;3.97;;
24337;SDS011;12457;50.832;4.346;2022-09-28T00:31:32;9.18;;;3.50;;
24337;SDS011;12457;50.832;4.346;2022-09-28T00:33:59;6.97;;;3.63;;
24337;SDS011;12457;50.832;4.346;2022-09-28T00:36:26;6.55;;;3.80;;
24337;SDS011;12457;50.832;4.346;2022-09-28T00:38:54;10.70;;;3.47;;
24337;SDS011;12457;50.832;4.346;2022-09-28T00:41:21;8.27;;;3.85;;
24337;SDS011;12457;50.832;4.346;2022-09-28T00:43:48;8.82;;;3.78;;
24337;SDS011;12457;50.832;4.346;2022-09-28T00:46:15;7.32;;;4.15;;
24337;SDS011;12457;50.832;4.346;2022-09-28T00:48:53;18.58;;;4.07;;
24337;SDS011;12457;50.832;4.346;2022-09-28T00:51:23;8.18;;;3.17;;
24337;SDS011;12457;50.832;4.346;2022-09-28T00:53:50;15.77;;;5.25;;
24337;SDS011;12457;50.832;4.346;2022-09-28T00:56:20;14.82;;;5.55;;
24337;SDS011;12457;50.832;4.346;2022-09-28T00:58:49;7.63;;;3.70;;
24337;SDS011;12457;50.832;4.346;2022-09-28T01:01:17;8.68;;;3.70;;
24337;SDS011;12457;50.832;4.346;2022-09-28T01:03:43;17.88;;;5.32;;
24337;SDS011;12457;50.832;4.346;2022-09-28T01:06:12;10.40;;;4.63;;
24337;SDS011;12457;50.832;4.346;2022-09-28T01:08:44;7.70;;;3.25;;
24337;SDS011;12457;50.832;4.346;2022-09-28T01:11:12;10.80;;;4.30;;
24337;SDS011;12457;50.832;4.346;2022-09-28T01:13:37;7.28;;;3.88;;
24337;SDS011;12457;50.832;4.346;2022-09-28T01:21:24;8.30;;;3.70;;
24337;SDS011;12457;50.832;4.346;2022-09-28T01:26:46;7.88;;;3.63;;
24337;SDS011;12457;50.832;4.346;2022-09-28T01:31:51;9.98;;;4.03;;
24337;SDS011;12457;50.832;4.346;2022-09-28T01:34:26;12.02;;;4.13;;
24337;SDS011;12457;50.832;4.346;2022-09-28T01:36:59;4.85;;;3.72;;
24337;SDS011;12457;50.832;4.346;2022-09-28T01:39:30;7.30;;;3.40;;
24337;SDS011;12457;50.832;4.346;2022-09-28T01:42:02;9.20;;;3.28;;
24337;SDS011;12457;50.832;4.346;2022-09-28T01:44:31;12.13;;;3.53;;
24337;SDS011;12457;50.832;4.346;2022-09-28T01:47:05;9.10;;;3.60;;
24337;SDS011;12457;50.832;4.346;2022-09-28T01:49:34;8.38;;;4.32;;
24337;SDS011;12457;50.832;4.346;2022-09-28T01:52:18;8.63;;;3.97;;
24337;SDS011;12457;50.832;4.346;2022-09-28T01:57:47;8.10;;;3.55;;
24337;SDS011;12457;50.832;4.346;2022-09-28T02:00:20;5.03;;;2.97;;
24337;SDS011;12457;50.832;4.346;2022-09-28T02:02:50;9.02;;;2.90;;
24337;SDS011;12457;50.832;4.346;2022-09-28T02:05:25;9.35;;;3.67;;
24337;SDS011;12457;50.832;4.346;2022-09-28T02:13:42;8.07;;;3.75;;
24337;SDS011;12457;50.832;4.346;2022-09-28T02:16:34;11.48;;;3.95;;
24337;SDS011;12457;50.832;4.346;2022-09-28T02:19:10;10.57;;;4.03;;
24337;SDS011;12457;50.832;4.346;2022-09-28T02:21:40;10.05;;;4.35;;
24337;SDS011;12457;50.832;4.346;2022-09-28T02:27:32;5.75;;;3.97;;
24337;SDS011;12457;50.832;4.346;2022-09-28T02:30:05;7.30;;;4.10;;
24337;SDS011;12457;50.832;4.346;2022-09-28T02:32:32;8.27;;;4.00;;
24337;SDS011;12457;50.832;4.346;2022-09-28T02:35:05;7.93;;;3.83;;
24337;SDS011;12457;50.832;4.346;2022-09-28T02:37:33;10.02;;;3.70;;
24337;SDS011;12457;50.832;4.346;2022-09-28T02:39:59;12.02;;;3.90;;
24337;SDS011;12457;50.832;4.346;2022-09-28T02:42:37;8.93;;;3.75;;
24337;SDS011;12457;50.832;4.346;2022-09-28T02:45:33;5.63;;;3.72;;
24337;SDS011;12457;50.832;4.346;2022-09-28T02:48:14;11.45;;;3.47;;
24337;SDS011;12457;50.832;4.346;2022-09-28T02:51:01;3.70;;;2.83;;
24337;SDS011;12457;50.832;4.346;2022-09-28T02:53:36;8.88;;;3.08;;
24337;SDS011;12457;50.832;4.346;2022-09-28T02:58:52;9.55;;;3.70;;
24337;SDS011;12457;50.832;4.346;2022-09-28T03:02:00;5.55;;;3.60;;
24337;SDS011;12457;50.832;4.346;2022-09-28T03:07:09;9.80;;;3.10;;
24337;SDS011;12457;50.832;4.346;2022-09-28T03:09:54;8.75;;;3.20;;
24337;SDS011;12457;50.832;4.346;2022-09-28T03:12:24;5.07;;;3.70;;
24337;SDS011;12457;50.832;4.346;2022-09-28T03:15:13;8.23;;;3.80;;
24337;SDS011;12457;50.832;4.346;2022-09-28T03:17:47;7.57;;;2.85;;
24337;SDS011;12457;50.832;4.346;2022-09-28T03:20:14;5.00;;;3.05;;
24337;SDS011;12457;50.832;4.346;2022-09-28T03:22:39;6.07;;;2.88;;
24337;SDS011;12457;50.832;4.346;2022-09-28T03:25:05;8.45;;;3.38;;
24337;SDS011;12457;50.832;4.346;2022-09-28T03:27:32;4.85;;;2.88;;
24337;SDS011;12457;50.832;4.346;2022-09-28T03:29:57;11.60;;;3.88;;
24337;SDS011;12457;50.832;4.346;2022-09-28T03:32:23;9.40;;;3.75;;
24337;SDS011;12457;50.832;4.346;2022-09-28T03:34:49;5.47;;;3.40;;
24337;SDS011;12457;50.832;4.346;2022-09-28T03:37:14;4.95;;;2.70;;
24337;SDS011;12457;50.832;4.346;2022-09-28T03:39:40;6.38;;;2.85;;
24337;SDS011;12457;50.832;4.346;2022-09-28T03:42:05;7.45;;;3.10;;
24337;SDS011;12457;50.832;4.346;2022-09-28T03:44:31;10.32;;;3.22;;
24337;SDS011;12457;50.832;4.346;2022-09-28T03:46:57;6.97;;;3.15;;
24337;SDS011;12457;50.832;4.346;2022-09-28T03:49:22;6.32;;;3.10;;
24337;SDS011;12457;50.832;4.346;2022-09-28T03:51:48;4.63;;;2.90;;
24337;SDS011;12457;50.832;4.346;2022-09-28T03:54:13;7.43;;;2.85;;
24337;SDS011;12457;50.832;4.346;2022-09-28T03:56:39;7.70;;;3.75;;
24337;SDS011;12457;50.832;4.346;2022-09-28T03:59:05;7.90;;;3.53;;
24337;SDS011;12457;50.832;4.346;2022-09-28T04:01:31;6.45;;;3.20;;
24337;SDS011;12457;50.832;4.346;2022-09-28T04:03:57;6.75;;;3.22;;
24337;SDS011;12457;50.832;4.346;2022-09-28T04:06:23;6.10;;;2.97;;
24337;SDS011;12457;50.832;4.346;2022-09-28T04:08:49;8.20;;;2.78;;
24337;SDS011;12457;50.832;4.346;2022-09-28T04:11:15;5.00;;;2.50;;
24337;SDS011;12457;50.832;4.346;2022-09-28T04:13:41;4.75;;;2.15;;
24337;SDS011;12457;50.832;4.346;2022-09-28T04:16:07;5.85;;;2.40;;
24337;SDS011;12457;50.832;4.346;2022-09-28T04:18:34;9.70;;;2.70;;
24337;SDS011;12457;50.832;4.346;2022-09-28T04:21:01;4.93;;;2.65;;
24337;SDS011;12457;50.832;4.346;2022-09-28T04:23:30;10.15;;;5.85;;
24337;SDS011;12457;50.832;4.346;2022-09-28T04:25:57;7.43;;;2.97;;
24337;SDS011;12457;50.832;4.346;2022-09-28T04:28:23;7.45;;;3.72;;
24337;SDS011;12457;50.832;4.346;2022-09-28T04:31:08;5.60;;;3.15;;
24337;SDS011;12457;50.832;4.346;2022-09-28T04:33:40;11.38;;;3.85;;
24337;SDS011;12457;50.832;4.346;2022-09-28T04:36:06;6.18;;;3.58;;
24337;SDS011;12457;50.832;4.346;2022-09-28T04:38:33;7.65;;;4.57;;
24337;SDS011;12457;50.832;4.346;2022-09-28T04:40:59;7.60;;;3.90;;
24337;SDS011;12457;50.832;4.346;2022-09-28T04:43:25;13.05;;;3.92;;
24337;SDS011;12457;50.832;4.346;2022-09-28T04:45:51;9.02;;;3.97;;
24337;SDS011;12457;50.832;4.346;2022-09-28T04:48:21;10.63;;;4.95;;
24337;SDS011;12457;50.832;4.346;2022-09-28T04:50:57;13.10;;;5.25;;
24337;SDS011;12457;50.832;4.346;2022-09-28T04:53:24;6.57;;;4.00;;
24337;SDS011;12457;50.832;4.346;2022-09-28T04:56:04;7.93;;;4.95;;
24337;SDS011;12457;50.832;4.346;2022-09-28T04:58:33;8.20;;;4.75;;
24337;SDS011;12457;50.832;4.346;2022-09-28T05:00:59;10.02;;;5.32;;
24337;SDS011;12457;50.832;4.346;2022-09-28T05:03:28;7.90;;;5.63;;
24337;SDS011;12457;50.832;4.346;2022-09-28T05:05:53;11.13;;;6.38;;
24337;SDS011;12457;50.832;4.346;2022-09-28T05:08:19;10.95;;;6.70;;
24337;SDS011;12457;50.832;4.346;2022-09-28T05:10:45;10.32;;;6.03;;
24337;SDS011;12457;50.832;4.346;2022-09-28T05:13:11;10.05;;;7.25;;
24337;SDS011;12457;50.832;4.346;2022-09-28T05:15:38;17.20;;;8.00;;
24337;SDS011;12457;50.832;4.346;2022-09-28T05:18:05;16.00;;;7.75;;
24337;SDS011;12457;50.832;4.346;2022-09-28T05:20:31;15.50;;;7.28;;
24337;SDS011;12457;50.832;4.346;2022-09-28T05:22:56;13.15;;;7.22;;
24337;SDS011;12457;50.832;4.346;2022-09-28T05:25:22;13.57;;;7.03;;
24337;SDS011;12457;50.832;4.346;2022-09-28T05:27:53;12.32;;;7.47;;
24337;SDS011;12457;50.832;4.346;2022-09-28T05:30:22;19.05;;;10.40;;
24337;SDS011;12457;50.832;4.346;2022-09-28T05:32:48;20.35;;;8.57;;
24337;SDS011;12457;50.832;4.346;2022-09-28T05:35:17;18.92;;;8.35;;
24337;SDS011;12457;50.832;4.346;2022-09-28T05:37:43;14.68;;;8.98;;
24337;SDS011;12457;50.832;4.346;2022-09-28T05:40:09;17.85;;;8.82;;
24337;SDS011;12457;50.832;4.346;2022-09-28T05:42:35;14.98;;;10.05;;
24337;SDS011;12457;50.832;4.346;2022-09-28T05:45:00;16.55;;;9.40;;
24337;SDS011;12457;50.832;4.346;2022-09-28T05:47:27;17.15;;;10.18;;
24337;SDS011;12457;50.832;4.346;2022-09-28T05:49:53;19.58;;;10.07;;
24337;SDS011;12457;50.832;4.346;2022-09-28T05:52:19;21.08;;;11.80;;
24337;SDS011;12457;50.832;4.346;2022-09-28T05:54:45;20.35;;;13.77;;
24337;SDS011;12457;50.832;4.346;2022-09-28T05:57:11;22.17;;;12.77;;
24337;SDS011;12457;50.832;4.346;2022-09-28T05:59:44;24.80;;;12.48;;
24337;SDS011;12457;50.832;4.346;2022-09-28T06:02:10;22.48;;;12.60;;
24337;SDS011;12457;50.832;4.346;2022-09-28T06:04:35;19.40;;;12.25;;
24337;SDS011;12457;50.832;4.346;2022-09-28T06:07:01;25.38;;;13.43;;
24337;SDS011;12457;50.832;4.346;2022-09-28T06:09:27;22.92;;;13.55;;
24337;SDS011;12457;50.832;4.346;2022-09-28T06:11:53;21.23;;;12.38;;
24337;SDS011;12457;50.832;4.346;2022-09-28T06:14:18;26.40;;;12.50;;
24337;SDS011;12457;50.832;4.346;2022-09-28T06:16:44;20.42;;;12.73;;
24337;SDS011;12457;50.832;4.346;2022-09-28T06:19:10;24.52;;;12.88;;
24337;SDS011;12457;50.832;4.346;2022-09-28T06:21:36;21.95;;;13.15;;
24337;SDS011;12457;50.832;4.346;2022-09-28T06:24:02;20.05;;;12.52;;
24337;SDS011;12457;50.832;4.346;2022-09-28T06:26:29;22.80;;;12.98;;
24337;SDS011;12457;50.832;4.346;2022-09-28T06:28:54;17.15;;;11.32;;
24337;SDS011;12457;50.832;4.346;2022-09-28T06:31:20;21.75;;;11.80;;
24337;SDS011;12457;50.832;4.346;2022-09-28T06:33:50;21.90;;;12.27;;
24337;SDS011;12457;50.832;4.346;2022-09-28T06:36:17;45.45;;;16.83;;
24337;SDS011;12457;50.832;4.346;2022-09-28T06:38:43;29.05;;;14.60;;
24337;SDS011;12457;50.832;4.346;2022-09-28T06:41:09;25.85;;;13.10;;
24337;SDS011;12457;50.832;4.346;2022-09-28T06:43:35;16.73;;;12.35;;
24337;SDS011;12457;50.832;4.346;2022-09-28T06:46:03;22.35;;;10.48;;
24337;SDS011;12457;50.832;4.346;2022-09-28T06:48:30;20.67;;;11.13;;
24337;SDS011;12457;50.832;4.346;2022-09-28T06:50:57;20.10;;;11.23;;
24337;SDS011;12457;50.832;4.346;2022-09-28T06:53:24;21.52;;;11.70;;
24337;SDS011;12457;50.832;4.346;2022-09-28T06:55:52;22.70;;;11.20;;
24337;SDS011;12457;50.832;4.346;2022-09-28T06:58:19;25.10;;;13.10;;
24337;SDS011;12457;50.832;4.346;2022-09-28T07:00:45;34.78;;;14.23;;
24337;SDS011;12457;50.832;4.346;2022-09-28T07:03:12;24.73;;;12.43;;
24337;SDS011;12457;50.832;4.346;2022-09-28T07:05:40;26.60;;;12.70;;
24337;SDS011;12457;50.832;4.346;2022-09-28T07:08:14;14.68;;;12.20;;
24337;SDS011;12457;50.832;4.346;2022-09-28T07:10:41;25.05;;;12.30;;
24337;SDS011;12457;50.832;4.346;2022-09-28T07:13:08;22.63;;;12.43;;
24337;SDS011;12457;50.832;4.346;2022-09-28T07:15:35;22.98;;;13.20;;
24337;SDS011;12457;50.832;4.346;2022-09-28T07:18:02;23.00;;;12.07;;
24337;SDS011;12457;50.832;4.346;2022-09-28T07:20:30;20.50;;;12.02;;
24337;SDS011;12457;50.832;4.346;2022-09-28T07:22:57;23.70;;;12.55;;
24337;SDS011;12457;50.832;4.346;2022-09-28T07:25:25;23.30;;;11.32;;
24337;SDS011;12457;50.832;4.346;2022-09-28T07:27:54;21.15;;;10.85;;
24337;SDS011;12457;50.832;4.346;2022-09-28T07:30:21;17.95;;;10.75;;
24337;SDS011;12457;50.832;4.346;2022-09-28T07:32:47;25.05;;;11.30;;
24337;SDS011;12457;50.832;4.346;2022-09-28T07:35:13;22.52;;;11.23;;
24337;SDS011;12457;50.832;4.346;2022-09-28T07:37:40;20.50;;;11.07;;
24337;SDS011;12457;50.832;4.346;2022-09-28T07:40:06;20.33;;;11.18;;
24337;SDS011;12457;50.832;4.346;2022-09-28T07:42:51;18.00;;;10.63;;
24337;SDS011;12457;50.832;4.346;2022-09-28T07:45:17;21.35;;;10.55;;
24337;SDS011;12457;50.832;4.346;2022-09-28T07:47:44;15.75;;;9.18;;
24337;SDS011;12457;50.832;4.346;2022-09-28T07:50:10;15.70;;;9.77;;
24337;SDS011;12457;50.832;4.346;2022-09-28T07:52:36;19.73;;;9.75;;
24337;SDS011;12457;50.832;4.346;2022-09-28T07:55:02;20.23;;;9.48;;
24337;SDS011;12457;50.832;4.346;2022-09-28T07:57:29;17.55;;;8.88;;
24337;SDS011;12457;50.832;4.346;2022-09-28T07:59:57;24.38;;;9.75;;
24337;SDS011;12457;50.832;4.346;2022-09-28T08:02:24;16.00;;;8.45;;
24337;SDS011;12457;50.832;4.346;2022-09-28T08:04:50;18.20;;;8.80;;
24337;SDS011;12457;50.832;4.346;2022-09-28T08:07:17;20.02;;;8.18;;
24337;SDS011;12457;50.832;4.346;2022-09-28T08:09:43;21.23;;;9.68;;
24337;SDS011;12457;50.832;4.346;2022-09-28T08:12:10;23.08;;;8.80;;
24337;SDS011;12457;50.832;4.346;2022-09-28T08:14:36;20.60;;;8.50;;
24337;SDS011;12457;50.832;4.346;2022-09-28T08:17:03;17.45;;;8.00;;
24337;SDS011;12457;50.832;4.346;2022-09-28T08:19:29;21.17;;;7.80;;
24337;SDS011;12457;50.832;4.346;2022-09-28T08:22:18;22.42;;;8.65;;
24337;SDS011;12457;50.832;4.346;2022-09-28T08:24:45;16.92;;;8.18;;
24337;SDS011;12457;50.832;4.346;2022-09-28T08:27:12;18.05;;;9.15;;
24337;SDS011;12457;50.832;4.346;2022-09-28T08:29:38;16.88;;;8.80;;
24337;SDS011;12457;50.832;4.346;2022-09-28T08:32:05;22.73;;;8.70;;
24337;SDS011;12457;50.832;4.346;2022-09-28T08:34:37;15.52;;;7.78;;
24337;SDS011;12457;50.832;4.346;2022-09-28T08:37:05;12.75;;;7.72;;
24337;SDS011;12457;50.832;4.346;2022-09-28T08:39:33;18.20;;;6.95;;
24337;SDS011;12457;50.832;4.346;2022-09-28T08:44:30;29.42;;;6.88;;
24337;SDS011;12457;50.832;4.346;2022-09-28T08:49:56;22.65;;;6.85;;
24337;SDS011;12457;50.832;4.346;2022-09-28T08:52:29;16.48;;;6.53;;
24337;SDS011;12457;50.832;4.346;2022-09-28T08:58:03;15.63;;;6.97;;
24337;SDS011;12457;50.832;4.346;2022-09-28T09:00:45;13.93;;;6.32;;
24337;SDS011;12457;50.832;4.346;2022-09-28T09:03:26;22.10;;;11.98;;
24337;SDS011;12457;50.832;4.346;2022-09-28T09:06:03;13.07;;;6.65;;
24337;SDS011;12457;50.832;4.346;2022-09-28T09:08:54;15.40;;;6.55;;
24337;SDS011;12457;50.832;4.346;2022-09-28T09:17:32;19.13;;;10.50;;
24337;SDS011;12457;50.832;4.346;2022-09-28T09:31:16;11.43;;;6.05;;
24337;SDS011;12457;50.832;4.346;2022-09-28T09:36:54;8.52;;;3.72;;
24337;SDS011;12457;50.832;4.346;2022-09-28T09:45:27;8.77;;;4.28;;
24337;SDS011;12457;50.832;4.346;2022-09-28T09:48:28;13.07;;;4.38;;
24337;SDS011;12457;50.832;4.346;2022-09-28T09:54:03;13.77;;;4.13;;
24337;SDS011;12457;50.832;4.346;2022-09-28T09:57:00;12.55;;;4.07;;
24337;SDS011;12457;50.832;4.346;2022-09-28T09:59:31;10.90;;;3.63;;
24337;SDS011;12457;50.832;4.346;2022-09-28T10:02:06;6.72;;;3.40;;
24337;SDS011;12457;50.832;4.346;2022-09-28T10:04:43;11.63;;;3.43;;
24337;SDS011;12457;50.832;4.346;2022-09-28T10:07:28;13.73;;;4.07;;
24337;SDS011;12457;50.832;4.346;2022-09-28T10:10:02;8.93;;;2.42;;
24337;SDS011;12457;50.832;4.346;2022-09-28T10:12:35;9.32;;;2.50;;
24337;SDS011;12457;50.832;4.346;2022-09-28T10:15:01;3.65;;;1.85;;
24337;SDS011;12457;50.832;4.346;2022-09-28T10:17:31;5.85;;;1.98;;
24337;SDS011;12457;50.832;4.346;2022-09-28T10:19:58;8.13;;;2.45;;
24337;SDS011;12457;50.832;4.346;2022-09-28T10:22:25;6.90;;;2.33;;
24337;SDS011;12457;50.832;4.346;2022-09-28T10:24:53;6.20;;;1.67;;
24337;SDS011;12457;50.832;4.346;2022-09-28T10:27:23;10.82;;;2.85;;
24337;SDS011;12457;50.832;4.346;2022-09-28T10:29:55;8.57;;;2.13;;
24337;SDS011;12457;50.832;4.346;2022-09-28T10:32:41;12.60;;;2.55;;
24337;SDS011;12457;50.832;4.346;2022-09-28T10:37:45;5.78;;;1.90;;
24337;SDS011;12457;50.832;4.346;2022-09-28T10:40:31;6.70;;;1.67;;
24337;SDS011;12457;50.832;4.346;2022-09-28T10:43:16;5.65;;;1.75;;
24337;SDS011;12457;50.832;4.346;2022-09-28T10:45:58;6.53;;;2.00;;
24337;SDS011;12457;50.832;4.346;2022-09-28T10:48:27;6.90;;;1.55;;
24337;SDS011;12457;50.832;4.346;2022-09-28T10:51:07;6.63;;;1.85;;
24337;SDS011;12457;50.832;4.346;2022-09-28T10:53:33;7.82;;;1.88;;
24337;SDS011;12457;50.832;4.346;2022-09-28T10:58:37;6.43;;;1.77;;
24337;SDS011;12457;50.832;4.346;2022-09-28T11:01:29;11.38;;;2.60;;
24337;SDS011;12457;50.832;4.346;2022-09-28T11:04:00;5.32;;;1.92;;
24337;SDS011;12457;50.832;4.346;2022-09-28T11:06:34;8.93;;;1.75;;
24337;SDS011;12457;50.832;4.346;2022-09-28T11:09:03;12.25;;;1.75;;
24337;SDS011;12457;50.832;4.346;2022-09-28T11:11:40;4.85;;;1.73;;
24337;SDS011;12457;50.832;4.346;2022-09-28T11:14:18;8.55;;;1.90;;
24337;SDS011;12457;50.832;4.346;2022-09-28T11:19:53;5.82;;;1.80;;
24337;SDS011;12457;50.832;4.346;2022-09-28T11:22:20;7.10;;;2.63;;
24337;SDS011;12457;50.832;4.346;2022-09-28T11:25:12;5.40;;;1.90;;
24337;SDS011;12457;50.832;4.346;2022-09-28T11:30:20;4.20;;;1.80;;
24337;SDS011;12457;50.832;4.346;2022-09-28T11:32:52;7.03;;;2.05;;
24337;SDS011;12457;50.832;4.346;2022-09-28T11:35:44;6.75;;;2.30;;
24337;SDS011;12457;50.832;4.346;2022-09-28T11:41:34;9.27;;;2.17;;
24337;SDS011;12457;50.832;4.346;2022-09-28T11:47:03;4.40;;;2.22;;
24337;SDS011;12457;50.832;4.346;2022-09-28T11:49:42;12.13;;;1.88;;
24337;SDS011;12457;50.832;4.346;2022-09-28T11:52:21;4.93;;;2.05;;
24337;SDS011;12457;50.832;4.346;2022-09-28T11:54:58;7.28;;;1.60;;
24337;SDS011;12457;50.832;4.346;2022-09-28T11:57:35;6.50;;;2.17;;
24337;SDS011;12457;50.832;4.346;2022-09-28T12:00:25;5.60;;;1.70;;
24337;SDS011;12457;50.832;4.346;2022-09-28T12:03:03;5.68;;;1.75;;
24337;SDS011;12457;50.832;4.346;2022-09-28T12:08:26;5.05;;;1.88;;
24337;SDS011;12457;50.832;4.346;2022-09-28T12:11:16;10.10;;;1.30;;
24337;SDS011;12457;50.832;4.346;2022-09-28T12:13:51;6.70;;;1.75;;
24337;SDS011;12457;50.832;4.346;2022-09-28T12:16:22;5.75;;;1.85;;
24337;SDS011;12457;50.832;4.346;2022-09-28T12:23:48;5.43;;;2.85;;
24337;SDS011;12457;50.832;4.346;2022-09-28T12:26:33;4.38;;;1.20;;
24337;SDS011;12457;50.832;4.346;2022-09-28T12:29:12;6.13;;;1.20;;
24337;SDS011;12457;50.832;4.346;2022-09-28T12:34:22;2.83;;;1.10;;
24337;SDS011;12457;50.832;4.346;2022-09-28T12:37:07;5.32;;;2.13;;
24337;SDS011;12457;50.832;4.346;2022-09-28T12:39:45;4.75;;;1.50;;
24337;SDS011;12457;50.832;4.346;2022-09-28T12:58:39;6.25;;;1.42;;
24337;SDS011;12457;50.832;4.346;2022-09-28T13:06:35;4.78;;;1.40;;
24337;SDS011;12457;50.832;4.346;2022-09-28T13:09:21;7.80;;;1.17;;
24337;SDS011;12457;50.832;4.346;2022-09-28T13:14:32;6.15;;;1.45;;
24337;SDS011;12457;50.832;4.346;2022-09-28T13:20:12;2.78;;;1.13;;
24337;SDS011;12457;50.832;4.346;2022-09-28T13:25:22;2.05;;;1.02;;
24337;SDS011;12457;50.832;4.346;2022-09-28T13:27:56;7.32;;;1.20;;
24337;SDS011;12457;50.832;4.346;2022-09-28T13:30:25;3.45;;;1.40;;
24337;SDS011;12457;50.832;4.346;2022-09-28T13:32:52;4.47;;;1.67;;
24337;SDS011;12457;50.832;4.346;2022-09-28T13:35:21;4.97;;;1.10;;
24337;SDS011;12457;50.832;4.346;2022-09-28T13:37:47;3.10;;;1.20;;
24337;SDS011;12457;50.832;4.346;2022-09-28T13:57:47;2.45;;;1.25;;
24337;SDS011;12457;50.832;4.346;2022-09-28T14:00:28;5.78;;;1.58;;
24337;SDS011;12457;50.832;4.346;2022-09-28T14:03:12;3.50;;;1.30;;
24337;SDS011;12457;50.832;4.346;2022-09-28T14:06:22;3.70;;;1.25;;
24337;SDS011;12457;50.832;4.346;2022-09-28T14:19:43;2.50;;;0.88;;
24337;SDS011;12457;50.832;4.346;2022-09-28T14:22:33;6.03;;;1.02;;
24337;SDS011;12457;50.832;4.346;2022-09-28T14:25:32;9.90;;;1.27;;
24337;SDS011;12457;50.832;4.346;2022-09-28T14:33:26;4.22;;;1.63;;
24337;SDS011;12457;50.832;4.346;2022-09-28T14:38:33;6.80;;;1.33;;
24337;SDS011;12457;50.832;4.346;2022-09-28T14:41:37;8.57;;;1.40;;
24337;SDS011;12457;50.832;4.346;2022-09-28T14:44:11;5.03;;;1.47;;
24337;SDS011;12457;50.832;4.346;2022-09-28T14:46:43;5.88;;;1.52;;
24337;SDS011;12457;50.832;4.346;2022-09-28T14:54:15;4.60;;;1.80;;
24337;SDS011;12457;50.832;4.346;2022-09-28T14:59:28;10.10;;;2.53;;
24337;SDS011;12457;50.832;4.346;2022-09-28T15:04:47;4.13;;;1.75;;
24337;SDS011;12457;50.832;4.346;2022-09-28T15:07:20;5.70;;;1.50;;
24337;SDS011;12457;50.832;4.346;2022-09-28T15:10:13;8.45;;;1.60;;
24337;SDS011;12457;50.832;4.346;2022-09-28T15:12:52;8.40;;;1.67;;
24337;SDS011;12457;50.832;4.346;2022-09-28T15:15:37;3.88;;;1.20;;
24337;SDS011;12457;50.832;4.346;2022-09-28T15:20:40;2.17;;;0.90;;
24337;SDS011;12457;50.832;4.346;2022-09-28T15:25:52;5.97;;;1.50;;
24337;SDS011;12457;50.832;4.346;2022-09-28T15:28:20;3.90;;;1.30;;
24337;SDS011;12457;50.832;4.346;2022-09-28T15:30:47;4.28;;;1.40;;
24337;SDS011;12457;50.832;4.346;2022-09-28T15:33:26;3.15;;;1.20;;
24337;SDS011;12457;50.832;4.346;2022-09-28T15:36:16;6.25;;;1.67;;
24337;SDS011;12457;50.832;4.346;2022-09-28T15:38:47;5.45;;;1.60;;
24337;SDS011;12457;50.832;4.346;2022-09-28T15:41:24;2.50;;;1.40;;
24337;SDS011;12457;50.832;4.346;2022-09-28T15:44:04;3.35;;;1.48;;
24337;SDS011;12457;50.832;4.346;2022-09-28T15:49:03;4.53;;;1.60;;
24337;SDS011;12457;50.832;4.346;2022-09-28T15:51:30;4.65;;;2.55;;
24337;SDS011;12457;50.832;4.346;2022-09-28T15:54:15;6.10;;;1.90;;
24337;SDS011;12457;50.832;4.346;2022-09-28T15:56:52;4.05;;;1.50;;
24337;SDS011;12457;50.832;4.346;2022-09-28T16:02:18;8.60;;;2.08;;
24337;SDS011;12457;50.832;4.346;2022-09-28T16:04:47;10.32;;;3.00;;
24337;SDS011;12457;50.832;4.346;2022-09-28T16:12:24;7.05;;;2.10;;
24337;SDS011;12457;50.832;4.346;2022-09-28T16:15:02;6.35;;;1.50;;
24337;SDS011;12457;50.832;4.346;2022-09-28T16:17:42;5.82;;;1.75;;
24337;SDS011;12457;50.832;4.346;2022-09-28T16:22:48;7.85;;;2.15;;
24337;SDS011;12457;50.832;4.346;2022-09-28T16:25:18;6.68;;;2.53;;
24337;SDS011;12457;50.832;4.346;2022-09-28T16:27:47;6.65;;;2.78;;
24337;SDS011;12457;50.832;4.346;2022-09-28T16:35:21;3.30;;;1.63;;
24337;SDS011;12457;50.832;4.346;2022-09-28T16:38:11;2.95;;;1.33;;
24337;SDS011;12457;50.832;4.346;2022-09-28T16:40:41;9.32;;;2.67;;
24337;SDS011;12457;50.832;4.346;2022-09-28T16:43:46;4.88;;;2.67;;
24337;SDS011;12457;50.832;4.346;2022-09-28T16:46:11;6.35;;;1.73;;
24337;SDS011;12457;50.832;4.346;2022-09-28T16:48:45;7.80;;;3.75;;
24337;SDS011;12457;50.832;4.346;2022-09-28T16:51:16;5.63;;;2.58;;
24337;SDS011;12457;50.832;4.346;2022-09-28T16:53:43;8.02;;;2.45;;
24337;SDS011;12457;50.832;4.346;2022-09-28T16:56:27;3.83;;;2.42;;
24337;SDS011;12457;50.832;4.346;2022-09-28T16:58:54;10.25;;;3.47;;
24337;SDS011;12457;50.832;4.346;2022-09-28T17:01:20;6.40;;;2.70;;
24337;SDS011;12457;50.832;4.346;2022-09-28T17:03:46;5.43;;;2.80;;
24337;SDS011;12457;50.832;4.346;2022-09-28T17:06:16;7.88;;;2.63;;
24337;SDS011;12457;50.832;4.346;2022-09-28T17:08:44;5.18;;;2.70;;
24337;SDS011;12457;50.832;4.346;2022-09-28T17:11:14;4.60;;;2.60;;
24337;SDS011;12457;50.832;4.346;2022-09-28T17:13:42;8.10;;;3.03;;
24337;SDS011;12457;50.832;4.346;2022-09-28T17:16:13;6.13;;;2.60;;
24337;SDS011;12457;50.832;4.346;2022-09-28T17:18:41;6.70;;;3.03;;
24337;SDS011;12457;50.832;4.346;2022-09-28T17:21:10;14.57;;;3.28;;
24337;SDS011;12457;50.832;4.346;2022-09-28T17:23:41;6.70;;;2.88;;
24337;SDS011;12457;50.832;4.346;2022-09-28T17:26:09;8.63;;;3.00;;
24337;SDS011;12457;50.832;4.346;2022-09-28T17:28:47;9.27;;;3.28;;
24337;SDS011;12457;50.832;4.346;2022-09-28T17:31:13;8.23;;;2.72;;
24337;SDS011;12457;50.832;4.346;2022-09-28T17:33:40;9.13;;;2.45;;
24337;SDS011;12457;50.832;4.346;2022-09-28T17:36:08;11.13;;;2.50;;
24337;SDS011;12457;50.832;4.346;2022-09-28T17:38:37;9.98;;;3.30;;
24337;SDS011;12457;50.832;4.346;2022-09-28T17:41:03;9.65;;;3.20;;
24337;SDS011;12457;50.832;4.346;2022-09-28T17:43:28;6.35;;;3.17;;
24337;SDS011;12457;50.832;4.346;2022-09-28T17:45:54;8.80;;;3.35;;
24337;SDS011;12457;50.832;4.346;2022-09-28T17:48:20;8.40;;;3.80;;
24337;SDS011;12457;50.832;4.346;2022-09-28T17:50:48;7.13;;;3.05;;
24337;SDS011;12457;50.832;4.346;2022-09-28T17:53:14;6.60;;;4.18;;
24337;SDS011;12457;50.832;4.346;2022-09-28T17:55:41;8.40;;;4.38;;
24337;SDS011;12457;50.832;4.346;2022-09-28T18:00:40;12.70;;;3.88;;
24337;SDS011;12457;50.832;4.346;2022-09-28T18:03:09;7.28;;;4.50;;
24337;SDS011;12457;50.832;4.346;2022-09-28T18:05:38;10.68;;;5.70;;
24337;SDS011;12457;50.832;4.346;2022-09-28T18:08:04;8.75;;;4.85;;
24337;SDS011;12457;50.832;4.346;2022-09-28T18:10:30;7.88;;;4.55;;
24337;SDS011;12457;50.832;4.346;2022-09-28T18:12:56;9.70;;;5.35;;
24337;SDS011;12457;50.832;4.346;2022-09-28T18:15:22;13.15;;;5.78;;
24337;SDS011;12457;50.832;4.346;2022-09-28T18:17:47;8.45;;;3.85;;
24337;SDS011;12457;50.832;4.346;2022-09-28T18:20:13;13.98;;;5.32;;
24337;SDS011;12457;50.832;4.346;2022-09-28T18:22:39;16.27;;;6.85;;